Jemez Springs, Valles Caldera, New Mexico Weather observations

Data are for 10 minute period ending at time listed.
 Day   Time   Solar   Ave.   Ave.  Ave.  Vector  Max.   Baro.   Total    
  of    of     Rad.   Air    Rel.  Wind   Wind   Wind  Press.  Precip.   
Year   Day            Temp.  Hum.  Speed  Dir.   Gust                    
2015   (MST)  Kw/m2    F      %     mph   deg.    mph    mb.     in.     
-------------------------------------------------------------------------
 109   22:30   0.00   42.4    51    4.0   354     7.2   806.7    0.00 
 109   22:40   0.00   41.9    52    4.8     7     9.0   806.8    0.00 
 109   22:50   0.00   41.6    53    5.1     2     9.0   806.8    0.00 
 109   23:00   0.00   41.3    53    5.4     1     9.0   806.8    0.00 
 109   23:10   0.00   40.9    54    5.4     4     9.6   806.9    0.00 
 109   23:20   0.00   40.6    54    5.5   357     9.0   806.9    0.00 
 109   23:30   0.00   40.5    54    5.3     5     9.0   807.0    0.00 
 109   23:40   0.00   40.4    54    5.8     2    10.2   807.1    0.00 
 109   23:50   0.00   40.3    54    6.0   356    11.3   807.1    0.00 
 110    0:00   0.00   40.1    54    4.0   347     9.0   807.2    0.00 
 110    0:10   0.00   39.7    55    5.3   335     9.6   807.2    0.00 
 110    0:20   0.00   40.2    54    7.5     6    12.5   807.0    0.00 
 110    0:30   0.00   39.2    56    5.9    16    10.2   807.1    0.00 
 110    0:40   0.00   38.5    58    4.5   356     7.8   807.0    0.00 
 110    0:50   0.00   38.4    58    5.1     4    11.3   807.0    0.00 
 110    1:00   0.00   38.2    59    5.4     8     8.7   806.8    0.00 
 110    1:10   0.00   37.8    60    4.6    20     8.4   806.9    0.00 
 110    1:20   0.00   37.4    60    4.2     7     9.0   806.9    0.00 
 110    1:30   0.00   37.4    60    4.1    18     7.8   806.9    0.00 
 110    1:40   0.00   37.2    61    4.7   358     9.0   806.8    0.00 
 110    1:50   0.00   37.1    61    4.0    15     7.8   806.8    0.00 
 110    2:00   0.00   37.2    61    4.2   350     7.8   806.9    0.00 
 110    2:10   0.00   37.4    61    4.5     1     7.2   806.9    0.00 
 110    2:20   0.00   37.3    61    5.0    20     9.6   806.9    0.00 
 110    2:30   0.00   37.0    62    3.7   358     6.0   806.9    0.00 
 110    2:40   0.00   37.2    61    4.5    13     7.2   807.0    0.00 
 110    2:50   0.00   36.9    62    4.5     9     9.6   807.0    0.00 
 110    3:00   0.00   36.7    63    4.8    12     8.4   807.1    0.00 
 110    3:10   0.00   36.8    62    4.8     7    10.8   807.0    0.00 
 110    3:20   0.00   37.2    61    6.0    10    12.5   806.9    0.00 
 110    3:30   0.00   37.3    61    5.0     9     7.8   806.8    0.00 
 110    3:40   0.00   37.3    61    4.0   341     7.8   806.8    0.00 
 110    3:50   0.00   37.7    60    4.7     2     9.6   806.7    0.00 
 110    4:00   0.00   37.5    61    5.4    12     9.6   806.6    0.00 
 110    4:10   0.00   37.3    61    5.1     3     9.3   806.4    0.00 
 110    4:20   0.00   37.2    61    5.3   356     8.4   806.4    0.00 
 110    4:30   0.00   37.1    62    4.3   353     8.4   806.4    0.00 
 110    4:40   0.00   37.2    62    4.3   360     9.0   806.5    0.00 
 110    4:50   0.00   37.3    61    4.9   354     9.0   806.6    0.00 
 110    5:00   0.00   37.3    61    4.6   358     9.6   806.4    0.00 
 110    5:10   0.00   36.9    63    4.4    11     7.8   806.3    0.00 
 110    5:20   0.00   36.9    63    4.3     0     9.6   806.4    0.00 
 110    5:30   0.00   37.3    62    3.2   357     7.2   806.5    0.00 
 110    5:40   0.01   37.5    61    4.5   349     8.4   806.5    0.00 
 110    5:50   0.01   37.3    61    3.9   359     7.2   806.5    0.00 
 110    6:00   0.02   37.2    62    4.8   352     7.8   806.6    0.00 
 110    6:10   0.02   37.3    62    4.2     6     7.2   806.7    0.00 
 110    6:20   0.03   37.1    62    3.8   355     7.2   806.7    0.00 
 110    6:30   0.03   37.1    63    4.1    16     7.2   806.8    0.00 
 110    6:40   0.03   37.1    63    3.7    26     6.0   806.8    0.00 
 110    6:50   0.19   38.2    61    3.5    28     7.2   806.8    0.00 
 110    7:00   0.28   41.2    56    3.4    44     5.4   806.9    0.00 
 110    7:10   0.29   43.5    51    2.6    44     4.8   806.9    0.00 
 110    7:20   0.37   44.6    49    3.3    43     6.0   806.9    0.00 
 110    7:30   0.39   46.5    46    2.4    53     4.2   806.9    0.00 
 110    7:40   0.44   48.8    42    2.0    69     3.6   806.9    0.00 
 110    7:50   0.43   49.9    40    2.2   133     4.2   806.8    0.00 
 110    8:00   0.48   50.0    40    3.9   148     6.0   806.7    0.00 
 110    8:10   0.52   50.7    38    4.2   167     6.6   806.8    0.00 
 110    8:20   0.58   51.0    36    3.9   165     6.6   806.7    0.00 
 110    8:30   0.61   51.7    35    4.1   165     7.2   806.6    0.00 
 110    8:40   0.64   52.5    36    5.1   153     7.2   806.5    0.00 
 110    8:50   0.67   53.2    35    6.6   169    10.8   806.4    0.00 
 110    9:00   0.70   53.5    34    7.4   171    11.3   806.4    0.00 
 110    9:10   0.73   54.5    32    8.1   172    14.9   806.4    0.00 
 110    9:20   0.76   55.0    33    8.8   180    14.3   806.3    0.00 
 110    9:30   0.78   55.6    33   11.2   180    17.9   806.2    0.00 
 110    9:40   0.81   55.9    32   12.1   190    16.7   806.0    0.00 
 110    9:50   0.83   55.8    31   12.1   186    19.1   806.0    0.00 
 110   10:00   0.85   56.4    31   11.8   184    16.7   806.0    0.00 
 110   10:10   0.88   57.5    30   12.0   189    17.3   805.8    0.00 
 110   10:20   0.91   58.0    29   13.1   185    18.5   805.6    0.00 
 110   10:30   0.92   58.2    29   13.0   186    19.1   805.5    0.00 
 110   10:40   0.85   59.3    28   11.1   184    16.4   805.4    0.00 
 110   10:50   0.93   60.7    26    9.6   180    16.1   805.1    0.00 
 110   11:00   0.95   62.0    25    6.5   200    12.5   805.0    0.00 
 110   11:10   0.77   62.6    24    5.9   165    10.8   804.9    0.00 
 110   11:20   0.69   61.8    25    4.7   221    10.2   804.8    0.00 
 110   11:30   0.81   63.1    24    4.8   134     9.6   804.6    0.00 
 110   11:40   0.62   62.7    22    5.2   117     9.6   804.4    0.00 
 110   11:50   0.56   63.9    21    5.0   114    11.3   804.2    0.00 
 110   12:00   0.58   64.5    20    6.5   238    12.5   804.2    0.00 
 110   12:10   0.86   64.7    18    7.0   351    17.3   804.0    0.00 
 110   12:20   0.50   64.5    18    6.8    38    15.5   803.7    0.00 
 110   12:30   0.35   63.2    18    7.3    96    18.5   803.7    0.00 
 110   12:40   0.50   63.9    19    5.5   146    16.7   803.6    0.00 
 110   12:50   0.30   63.8    18    5.7   104    10.2   803.5    0.00 
 110   13:00   0.38   64.0    17    7.6   176    27.4   803.3    0.00 
 110   13:10   0.20   64.2    17    5.9    34    11.9   803.3    0.00 
 110   13:20   0.52   64.2    18    5.8   156    10.8   803.2    0.00 
 110   13:30   0.23   64.4    17    6.2    94    13.7   803.1    0.00 
 110   13:40   0.36   64.1    16    5.9   127    12.5   803.1    0.00 
 110   13:50   0.55   64.7    15   12.7    50    25.0   802.9    0.01 
 110   14:00   0.28   64.1    15    7.2    82    22.7   802.8    0.00 
 110   14:10   0.24   63.1    16    7.4    88    15.5   803.2    0.00 
 110   14:20   0.29   63.2    15    8.1   170    16.1   802.8    0.00 
 110   14:30   0.21   63.3    15    7.1   137    15.5   802.7    0.00 
 110   14:40   0.31   62.6    17    7.7   250    21.5   803.5    0.00 
 110   14:50   0.18   62.0    18   10.9   180    21.5   803.1    0.00 
 110   15:00   0.21   62.3    18    4.5   233    10.2   803.2    0.00 
 110   15:10   0.28   63.0    18    4.9    97    11.3   803.1    0.00 
 110   15:20   0.21   63.3    17    4.0    32    11.3   802.9    0.00 
 110   15:30   0.35   63.5    18    4.7   149    10.2   803.2    0.00 
 110   15:40   0.60   64.8    17    5.8   123    11.9   803.0    0.00 
 110   15:50   0.56   64.3    18    8.6   161    14.9   802.7    0.00 
 110   16:00   0.45   64.3    19    8.3   166    13.7   802.5    0.00 
 110   16:10   0.15   63.2    20    6.0   182    13.1   802.5    0.00 
 110   16:20   0.14   63.4    18    6.1   136    28.6   802.8    0.00 
 110   16:30   0.19   62.5    15    6.5    77    16.1   803.1    0.00 
 110   16:40   0.17   62.6    17    7.1   172    14.9   803.3    0.00 
 110   16:50   0.14   61.5    20    5.9   138    12.5   803.5    0.00 
 110   17:00   0.13   61.1    21    5.7   155    14.3   803.5    0.00 
 110   17:10   0.13   60.7    22    5.8   144    12.5   803.6    0.00 
 110   17:20   0.17   61.1    22    4.8   151    10.8   803.5    0.00 
 110   17:30   0.09   60.8    22    3.3   113     7.2   803.6    0.00 
 110   17:40   0.05   60.3    22    7.1    43    19.7   803.8    0.00 
 110   17:50   0.06   58.9    23    9.9    42    26.2   803.9    0.00 
 110   18:00   0.06   58.9    23    6.0    65    15.2   803.8    0.00 
 110   18:10   0.03   58.8    22    5.8    65    12.5   803.6    0.00 
 110   18:20   0.02   58.4    23    3.3   119     6.0   803.6    0.00 
 110   18:30   0.01   57.6    24    3.0   122     8.4   803.7    0.00 
 110   18:40   0.01   56.7    26    2.7   106     6.0   803.7    0.00 
 110   18:50   0.00   55.1    28    2.0    59     7.2   803.7    0.00 
 110   19:00   0.00   53.0    31    3.6   352     6.0   803.8    0.00 
 110   19:10   0.00   52.4    32    3.4    21     4.8   804.0    0.00 
 110   19:20   0.00   51.5    33    3.5    20     6.0   804.3    0.00 
 110   19:30   0.00   50.9    34    4.6    18     7.2   804.4    0.00 
 110   19:40   0.00   49.9    36    4.8    21     7.2   804.6    0.00 
 110   19:50   0.00   49.0    37    5.2   359     8.4   804.7    0.00 
 110   20:00   0.00   48.8    37    5.5     9    10.2   804.9    0.00 
 110   20:10   0.00   48.4    38    5.6    21    11.3   805.0    0.00 
 110   20:20   0.00   47.8    39    3.6   354     7.8   805.2    0.00 
 110   20:30   0.00   47.1    40    5.8    20    11.3   805.2    0.00 
 110   20:40   0.00   47.1    39    5.9   355    10.2   805.3    0.00 
 110   20:50   0.00   46.4    40    6.9     5    12.5   805.4    0.00 
 110   21:00   0.00   46.1    40    6.2    33    13.1   805.5    0.00 
 110   21:10   0.00   45.4    41    5.5    32     9.0   805.6    0.00 
 110   21:20   0.00   45.0    42    5.3    28    10.8   805.6    0.00 
 110   21:30   0.00   45.3    41    6.0    10    12.5   805.6    0.00 
 110   21:40   0.00   45.6    40    6.8    13    11.3   805.7    0.00 
 110   21:50   0.00   45.5    39    6.8    13    11.3   805.7    0.00 
 110   22:00   0.00   45.3    39    6.6     9    13.1   805.7    0.00 
 110   22:10   0.00   44.9    40    7.7     6    14.0   805.7    0.00 
 110   22:20   0.00   44.4    41    8.9     8    15.5   805.7    0.00 

Return to Jemez Springs, Valles Caldera graphs page.


Western Regional Climate Center,wrcc@dri.edu